Time;durP1;ratioP1;P1;durP2;ratioP2;P2;SDS_P1;SDS_P2;PMS_P1;PMS_P2;Temp;Humidity;BMP_temperature;BMP_pressure;BME280_temperature;BME280_humidity;BME280_pressure;Samples;Min_cycle;Max_cycle;Signal;HPM_P1;HPM_P2
2022/02/15 00:00:42;;;;;;;2.75;1.20;;;;;;;4.40;88.75;95873.63;2067002;28;20201;-68
2022/02/15 00:01:44;;;;;;;1.35;0.80;;;;;;;4.29;88.44;95861.28;2066070;28;20205;-68
2022/02/15 00:02:45;;;;;;;1.30;0.90;;;;;;;4.50;88.46;95871.34;2067899;28;21032;-68
2022/02/15 00:03:47;;;;;;;1.20;0.60;;;;;;;4.44;88.07;95875.13;2068844;28;20208;-68
2022/02/15 00:04:48;;;;;;;1.20;0.82;;;;;;;4.40;88.32;95885.75;2066817;28;20665;-68
2022/02/15 00:05:50;;;;;;;1.50;1.08;;;;;;;4.35;88.60;95873.88;2067884;28;20204;-68
2022/02/15 00:06:52;;;;;;;0.93;0.60;;;;;;;4.33;88.63;95874.88;2067184;28;20714;-68
2022/02/15 00:07:54;;;;;;;1.42;0.70;;;;;;;4.35;88.56;95880.81;2068630;28;20198;-68
2022/02/15 00:08:58;;;;;;;1.58;0.80;;;;;;;4.24;88.67;95867.63;2067795;28;20206;-68
2022/02/15 00:09:59;;;;;;;8.77;0.70;;;;;;;4.12;88.78;95849.22;2067701;28;20214;-68
2022/02/15 00:11:01;;;;;;;1.80;0.80;;;;;;;4.33;88.83;95880.06;2066218;28;20198;-68
2022/02/15 00:12:02;;;;;;;0.80;0.70;;;;;;;4.34;88.58;95877.38;2066766;28;20202;-68
2022/02/15 00:13:04;;;;;;;0.90;0.80;;;;;;;4.29;88.87;95879.41;2067947;28;20209;-68
2022/02/15 00:14:05;;;;;;;0.98;0.60;;;;;;;4.34;89.01;95876.56;2070017;28;20240;-68
2022/02/15 00:15:08;;;;;;;1.80;0.80;;;;;;;4.35;88.84;95879.06;2066692;28;20215;-68
2022/02/15 00:16:09;;;;;;;1.00;0.80;;;;;;;4.32;88.86;95889.59;2063093;28;20205;-68
2022/02/15 00:17:11;;;;;;;1.48;0.88;;;;;;;4.37;88.37;95881.56;2068900;28;20199;-68
2022/02/15 00:18:13;;;;;;;1.63;0.73;;;;;;;4.29;88.71;95881.16;2066808;28;20225;-68
2022/02/15 00:19:14;;;;;;;1.63;0.85;;;;;;;4.27;88.90;95885.59;2066776;28;20587;-68
2022/02/15 00:20:15;;;;;;;2.65;0.88;;;;;;;4.27;88.77;95881.25;2069229;28;20209;-68
2022/02/15 00:21:17;;;;;;;1.00;0.80;;;;;;;4.31;88.91;95882.75;2068757;28;20559;-68
2022/02/15 00:22:19;;;;;;;2.08;1.00;;;;;;;4.34;88.33;95882.56;2066070;28;20199;-68
2022/02/15 00:23:23;;;;;;;1.67;0.70;;;;;;;4.27;88.73;95881.25;2066121;28;20645;-68
2022/02/15 00:24:24;;;;;;;2.17;0.80;;;;;;;4.26;88.91;95881.34;2064391;28;20740;-68
2022/02/15 00:25:26;;;;;;;1.27;0.75;;;;;;;4.24;89.05;95880.59;2067153;28;20218;-68
2022/02/15 00:26:28;;;;;;;3.10;0.70;;;;;;;4.24;89.13;95885.78;2067099;28;20195;-68
2022/02/15 00:27:29;;;;;;;2.35;0.80;;;;;;;4.27;88.85;95883.00;2067890;28;20201;-68
2022/02/15 00:28:31;;;;;;;1.40;0.80;;;;;;;4.28;88.65;95876.91;2068083;28;20320;-68
2022/02/15 00:29:32;;;;;;;1.65;0.80;;;;;;;4.22;88.64;95869.47;2067231;28;20646;-68
2022/02/15 00:30:34;;;;;;;0.90;0.60;;;;;;;4.27;89.09;95875.22;2063152;28;20194;-68
2022/02/15 00:31:35;;;;;;;1.48;0.98;;;;;;;4.25;88.96;95871.88;2063645;28;20203;-68
2022/02/15 00:32:37;;;;;;;1.52;0.75;;;;;;;4.25;89.06;95870.09;2064938;28;20202;-68
2022/02/15 00:33:38;;;;;;;1.20;0.80;;;;;;;4.14;89.23;95868.13;2066349;28;20775;-68
2022/02/15 00:34:40;;;;;;;0.80;0.68;;;;;;;4.10;89.15;95861.44;2066848;28;20232;-68
2022/02/15 00:35:41;;;;;;;1.23;0.82;;;;;;;4.22;89.28;95872.88;2067894;28;20218;-68
2022/02/15 00:36:43;;;;;;;0.88;0.70;;;;;;;4.08;89.17;95850.31;2070237;28;20209;-68
2022/02/15 00:37:44;;;;;;;1.25;0.73;;;;;;;4.23;89.13;95874.53;2066139;28;20202;-68
2022/02/15 00:38:46;;;;;;;0.90;0.70;;;;;;;4.15;89.32;95864.59;2062021;28;20234;-68
2022/02/15 00:39:48;;;;;;;1.70;0.90;;;;;;;4.10;89.52;95856.25;2064833;28;20222;-68
2022/02/15 00:40:49;;;;;;;0.80;0.60;;;;;;;4.03;89.23;95847.13;2068250;28;20194;-68
2022/02/15 00:41:51;;;;;;;1.05;0.82;;;;;;;4.12;89.17;95872.56;2064960;28;20202;-68
2022/02/15 00:42:53;;;;;;;1.08;0.95;;;;;;;4.12;89.13;95872.56;2065531;28;20559;-68
2022/02/15 00:43:54;;;;;;;1.40;0.80;;;;;;;4.13;89.29;95869.03;2064806;28;20202;-68
2022/02/15 00:44:56;;;;;;;1.10;0.70;;;;;;;4.09;89.40;95872.72;2066246;28;20199;-68
2022/02/15 00:45:57;;;;;;;0.85;0.60;;;;;;;4.12;89.07;95872.56;2065322;28;20206;-68
2022/02/15 00:46:59;;;;;;;1.63;0.90;;;;;;;3.92;88.98;95833.91;2068832;28;20221;-68
2022/02/15 00:48:00;;;;;;;0.90;0.80;;;;;;;4.01;89.37;95850.75;2067395;28;20194;-68
2022/02/15 00:49:02;;;;;;;1.20;1.10;;;;;;;4.12;89.29;95862.19;2064339;28;20620;-68
2022/02/15 00:50:04;;;;;;;1.08;0.80;;;;;;;4.06;89.49;95862.53;2066712;28;20207;-68
2022/02/15 00:51:06;;;;;;;1.90;0.70;;;;;;;4.05;89.48;95865.19;2068905;28;20206;-68
2022/02/15 00:52:08;;;;;;;1.73;0.85;;;;;;;4.06;89.72;95859.94;2065040;28;20199;-68
2022/02/15 00:53:09;;;;;;;1.20;0.70;;;;;;;4.07;89.33;95866.78;2068574;28;20237;-68
2022/02/15 00:54:11;;;;;;;1.05;0.70;;;;;;;4.06;89.40;95867.72;2065737;28;20586;-68
2022/02/15 00:55:15;;;;;;;1.20;0.70;;;;;;;4.10;89.42;95865.78;2065809;28;20194;-68
2022/02/15 00:56:17;;;;;;;1.10;0.70;;;;;;;4.07;89.40;95868.53;2066453;28;20205;-69
2022/02/15 00:57:18;;;;;;;1.10;0.88;;;;;;;4.08;89.20;95867.63;2067147;28;20719;-68
2022/02/15 00:58:20;;;;;;;1.08;0.70;;;;;;;4.01;89.07;95856.75;2067414;28;20205;-68
2022/02/15 00:59:21;;;;;;;3.75;0.70;;;;;;;4.03;89.57;95861.84;2062529;28;20848;-68
2022/02/15 01:00:23;;;;;;;1.75;0.80;;;;;;;4.06;89.46;95861.69;2068544;28;20204;-69
2022/02/15 01:01:24;;;;;;;0.80;0.63;;;;;;;4.04;89.44;95866.97;2069406;28;20193;-68
2022/02/15 01:02:26;;;;;;;1.38;0.85;;;;;;;3.98;89.60;95862.13;2069981;28;20209;-69
2022/02/15 01:03:28;;;;;;;0.80;0.65;;;;;;;3.97;90.02;95873.38;2068317;28;20199;-68
2022/02/15 01:04:29;;;;;;;0.80;0.60;;;;;;;4.07;89.43;95866.78;2064057;28;20706;-68
2022/02/15 01:05:31;;;;;;;1.08;0.70;;;;;;;3.90;89.58;95861.66;2064190;28;20201;-68
2022/02/15 01:06:33;;;;;;;1.10;0.60;;;;;;;3.91;89.86;95871.13;2069496;28;20228;-68
2022/02/15 01:07:34;;;;;;;0.90;0.70;;;;;;;3.90;89.87;95874.63;2063786;28;20540;-68
2022/02/15 01:08:35;;;;;;;3.30;0.80;;;;;;;3.88;90.10;95877.31;2066927;28;20206;-68
2022/02/15 01:09:37;;;;;;;1.48;0.65;;;;;;;3.81;90.15;95864.78;2068476;28;20225;-68
2022/02/15 01:10:40;;;;;;;0.90;0.80;;;;;;;3.88;nan;95873.88;2062837;28;20229;-69
2022/02/15 01:11:41;;;;;;;1.38;0.80;;;;;;;3.86;90.24;95876.56;2069142;28;20755;-69
2022/02/15 01:12:43;;;;;;;2.20;0.90;;;;;;;3.88;90.02;95881.63;2069326;28;20642;-68
2022/02/15 01:13:45;;;;;;;2.17;1.02;;;;;;;3.88;89.92;95879.91;2065686;28;20202;-68
2022/02/15 01:14:46;;;;;;;0.90;0.60;;;;;;;3.91;89.95;95884.06;2065226;28;20239;-68
2022/02/15 01:15:48;;;;;;;0.93;0.60;;;;;;;3.89;90.02;95881.56;2066940;28;20703;-68
2022/02/15 01:16:50;;;;;;;1.88;1.00;;;;;;;3.89;89.90;95878.16;2068696;28;20675;-68
2022/02/15 01:17:51;;;;;;;2.38;0.80;;;;;;;3.89;89.89;95881.56;2066037;28;20199;-68
2022/02/15 01:18:53;;;;;;;4.20;0.90;;;;;;;3.89;89.90;95875.56;2065929;28;20672;-68
2022/02/15 01:19:54;;;;;;;1.00;0.70;;;;;;;3.86;89.89;95876.56;2067076;28;20203;-68
2022/02/15 01:20:56;;;;;;;1.88;0.80;;;;;;;3.87;90.02;95878.22;2067335;28;20198;-68
2022/02/15 01:21:57;;;;;;;1.00;0.80;;;;;;;3.89;89.91;95885.91;2066917;28;20718;-68
2022/02/15 01:22:59;;;;;;;1.30;1.00;;;;;;;3.90;89.85;95879.81;2066299;28;20214;-68
2022/02/15 01:24:00;;;;;;;1.58;0.82;;;;;;;3.92;89.67;95880.56;2063956;28;20209;-68
2022/02/15 01:25:04;;;;;;;2.03;0.90;;;;;;;3.89;89.89;95872.97;2065403;28;20202;-68
2022/02/15 01:26:05;;;;;;;1.90;1.00;;;;;;;3.90;89.47;95874.63;2067513;28;20637;-68
2022/02/15 01:27:08;;;;;;;1.75;0.80;;;;;;;3.89;89.65;95873.78;2069926;28;20206;-68
2022/02/15 01:28:09;;;;;;;3.10;1.05;;;;;;;3.87;89.84;95879.97;2065012;28;20638;-68
2022/02/15 01:29:10;;;;;;;1.15;1.02;;;;;;;3.86;89.85;95881.75;2064456;28;20229;-68
2022/02/15 01:30:12;;;;;;;1.38;0.90;;;;;;;3.82;89.93;95876.78;2067492;28;20875;-68
2022/02/15 01:31:13;;;;;;;2.78;0.88;;;;;;;3.82;90.04;95887.97;2068214;28;20199;-68
2022/02/15 01:32:15;;;;;;;1.10;0.70;;;;;;;3.81;90.07;95880.31;2066524;28;20392;-68
2022/02/15 01:33:16;;;;;;;2.67;0.80;;;;;;;3.81;90.22;95885.50;2065481;28;20853;-68
2022/02/15 01:34:18;;;;;;;1.48;0.80;;;;;;;3.80;89.91;95892.41;2069156;28;20221;-68
2022/02/15 01:35:19;;;;;;;2.58;0.80;;;;;;;3.78;89.82;95883.06;2067615;28;20300;-68
2022/02/15 01:36:21;;;;;;;1.23;0.80;;;;;;;3.77;89.50;95887.41;2066951;28;20209;-67
2022/02/15 01:37:23;;;;;;;0.95;0.65;;;;;;;3.83;89.69;95881.91;2067376;28;20199;-68
2022/02/15 01:38:25;;;;;;;1.85;0.93;;;;;;;3.83;89.53;95881.06;2066255;28;20193;-67
2022/02/15 01:39:26;;;;;;;3.13;0.77;;;;;;;3.81;89.68;95878.56;2062953;28;20241;-68
2022/02/15 01:40:28;;;;;;;1.00;0.80;;;;;;;3.81;89.59;95875.13;2065641;28;20198;-68
2022/02/15 01:41:30;;;;;;;1.65;1.08;;;;;;;3.81;89.54;95873.38;2068221;28;20264;-68
2022/02/15 01:42:31;;;;;;;1.95;0.90;;;;;;;3.71;89.38;95864.44;2065634;28;20483;-68
2022/02/15 01:43:41;;;;;;;1.50;1.00;;;;;;;3.59;89.56;95852.97;2066762;28;20198;-68
2022/02/15 01:44:43;;;;;;;1.75;1.00;;;;;;;3.80;89.58;95881.22;2063828;28;20705;-68
2022/02/15 01:45:44;;;;;;;1.48;0.80;;;;;;;3.85;89.56;95877.47;2069565;28;20198;-68
2022/02/15 01:46:45;;;;;;;1.42;0.70;;;;;;;3.76;89.29;95871.03;2066981;28;20198;-68
2022/02/15 01:47:48;;;;;;;1.30;0.80;;;;;;;3.77;89.65;95882.22;2066692;28;20206;-68
2022/02/15 01:48:49;;;;;;;1.30;1.20;;;;;;;3.74;89.75;95880.66;2068469;28;20193;-67
2022/02/15 01:49:51;;;;;;;0.90;0.70;;;;;;;3.75;89.59;95874.53;2068706;28;20208;-68
2022/02/15 01:50:58;;;;;;;2.90;0.80;;;;;;;3.73;89.50;95876.38;2064161;28;20205;-68
2022/02/15 01:52:01;;;;;;;2.58;0.90;;;;;;;3.73;89.73;95876.38;2065550;28;20209;-68
2022/02/15 01:53:02;;;;;;;1.52;0.70;;;;;;;3.73;89.56;95866.00;2067169;28;20208;-68
2022/02/15 01:54:04;;;;;;;2.45;1.00;;;;;;;3.73;89.58;95872.94;2068380;28;20198;-68
2022/02/15 01:55:08;;;;;;;1.00;0.90;;;;;;;3.71;89.80;95882.56;2063828;28;20237;-68
2022/02/15 01:56:13;;;;;;;2.13;0.90;;;;;;;3.68;89.90;95882.69;2065954;28;20213;-68
2022/02/15 01:57:15;;;;;;;1.20;0.80;;;;;;;3.65;90.07;95878.53;2067440;28;20194;-68
2022/02/15 01:58:17;;;;;;;1.90;1.30;;;;;;;3.69;90.10;95881.81;2068449;28;20198;-68
2022/02/15 01:59:19;;;;;;;1.20;0.90;;;;;;;3.67;90.09;95879.28;2068827;28;20222;-68
2022/02/15 02:00:22;;;;;;;3.83;0.90;;;;;;;3.53;90.19;95853.28;2066404;28;20198;-68
2022/02/15 02:01:23;;;;;;;2.45;0.95;;;;;;;3.64;90.34;95881.19;2065164;28;20198;-68
2022/02/15 02:02:27;;;;;;;1.35;0.95;;;;;;;3.75;89.82;95879.72;2062484;28;20190;-68
2022/02/15 02:03:29;;;;;;;1.60;0.90;;;;;;;3.72;89.75;95879.03;2064454;28;20551;-68
2022/02/15 02:05:50;;;;;;;2.17;1.10;;;;;;;3.66;89.95;95874.19;2063545;28;20205;-68
2022/02/15 02:06:53;;;;;;;1.02;0.70;;;;;;;3.62;89.83;95867.50;2063302;28;20747;-68
2022/02/15 02:07:56;;;;;;;1.60;0.90;;;;;;;3.71;89.63;95878.22;2066285;28;20206;-68
2022/02/15 02:09:01;;;;;;;1.35;0.80;;;;;;;3.62;90.16;95876.09;2062977;28;20206;-68
2022/02/15 02:10:04;;;;;;;1.95;0.98;;;;;;;3.58;90.20;95876.34;2066784;28;20221;-68
2022/02/15 02:11:06;;;;;;;2.88;1.10;;;;;;;3.55;90.24;95864.41;2065387;28;20198;-68
2022/02/15 02:12:08;;;;;;;2.70;0.85;;;;;;;3.55;90.49;95877.34;2065443;28;20202;-69
2022/02/15 02:13:10;;;;;;;1.10;0.70;;;;;;;3.52;90.56;95872.31;2068030;28;20204;-68
2022/02/15 02:14:12;;;;;;;7.28;1.30;;;;;;;3.53;90.56;95874.00;2066688;28;20696;-68
2022/02/15 02:15:24;;;;;;;2.58;1.20;;;;;;;3.51;90.47;95868.91;2068458;28;20218;-68
2022/02/15 02:16:30;;;;;;;2.33;1.10;;;;;;;3.46;90.65;95872.63;2067331;28;20235;-68
2022/02/15 02:17:32;;;;;;;1.33;0.82;;;;;;;3.52;90.48;95872.31;2067439;28;20227;-68
2022/02/15 02:18:34;;;;;;;3.20;1.55;;;;;;;3.53;90.55;95874.00;2069508;28;20353;-68
2022/02/15 02:19:35;;;;;;;8.13;1.38;;;;;;;3.48;90.62;95865.63;2065500;28;20221;-68
2022/02/15 02:20:39;;;;;;;1.83;1.10;;;;;;;3.47;90.68;95879.47;2068048;28;20199;-68
2022/02/15 02:21:41;;;;;;;1.00;0.80;;;;;;;3.44;90.93;95874.47;2067163;28;20197;-68
2022/02/15 02:22:42;;;;;;;2.47;1.10;;;;;;;3.43;90.93;95872.78;2066092;28;20213;-68
2022/02/15 02:23:44;;;;;;;3.08;1.02;;;;;;;3.43;90.97;95877.97;2066752;28;20194;-68
2022/02/15 02:24:45;;;;;;;0.90;0.80;;;;;;;3.43;90.87;95875.38;2066628;28;20233;-68
2022/02/15 02:25:47;;;;;;;1.73;0.90;;;;;;;3.53;90.61;95880.00;2068644;28;20551;-68
2022/02/15 02:26:50;;;;;;;1.40;1.02;;;;;;;3.55;90.38;95887.72;2068544;28;20535;-68
2022/02/15 02:27:51;;;;;;;7.43;1.23;;;;;;;3.48;90.51;95873.41;2067521;28;20229;-68
2022/02/15 02:28:54;;;;;;;2.67;0.90;;;;;;;3.47;90.48;95876.88;2064400;28;20198;-68
2022/02/15 02:29:56;;;;;;;1.55;1.20;;;;;;;3.38;90.55;95864.44;2067533;28;20202;-68
2022/02/15 02:30:58;;;;;;;3.35;0.95;;;;;;;3.48;90.59;95876.00;2061800;28;20214;-69
2022/02/15 02:31:59;;;;;;;2.00;0.88;;;;;;;3.48;90.65;95879.41;2063252;28;20198;-68
2022/02/15 02:33:01;;;;;;;1.15;0.95;;;;;;;3.51;90.40;95875.84;2068231;28;20203;-68
2022/02/15 02:34:02;;;;;;;4.38;1.08;;;;;;;3.50;90.39;95874.16;2068251;28;20205;-68
2022/02/15 02:35:05;;;;;;;1.90;1.00;;;;;;;3.52;90.23;95883.50;2066590;28;20210;-68
2022/02/15 02:36:08;;;;;;;2.00;1.20;;;;;;;3.35;90.43;95862.81;2069193;28;20194;-68
2022/02/15 02:37:13;;;;;;;2.55;0.93;;;;;;;3.44;90.51;95892.59;2058559;28;20649;-68
2022/02/15 02:38:14;;;;;;;2.20;1.00;;;;;;;3.47;90.56;95887.25;2058837;28;20232;-67
2022/02/15 02:39:19;;;;;;;4.35;1.10;;;;;;;3.46;90.28;95877.81;2067988;28;20222;-68
2022/02/15 02:40:21;;;;;;;1.42;1.00;;;;;;;3.42;90.45;95879.72;2067462;28;20649;-68
2022/02/15 02:41:23;;;;;;;4.57;1.35;;;;;;;3.46;90.50;95883.00;2067623;28;20195;-68
2022/02/15 02:42:26;;;;;;;3.47;1.13;;;;;;;3.44;90.69;95877.88;2069498;28;20199;-68
2022/02/15 02:43:28;;;;;;;3.47;0.90;;;;;;;3.30;90.79;95860.50;2068906;28;20547;-68
2022/02/15 02:44:30;;;;;;;3.40;0.90;;;;;;;3.38;90.63;95880.81;2064751;28;20232;-68
2022/02/15 02:45:31;;;;;;;1.30;0.80;;;;;;;3.39;90.74;95879.03;2065014;28;20820;-68
2022/02/15 02:46:33;;;;;;;2.33;1.00;;;;;;;3.41;90.83;95888.44;2068121;28;20313;-69
2022/02/15 02:47:35;;;;;;;4.10;1.00;;;;;;;3.41;90.76;95879.78;2068673;28;20845;-68
2022/02/15 02:48:36;;;;;;;1.30;0.80;;;;;;;3.33;90.69;95877.59;2068757;28;20202;-68
2022/02/15 02:49:38;;;;;;;2.35;0.85;;;;;;;3.36;90.82;95886.06;2070104;28;20225;-68
2022/02/15 02:50:40;;;;;;;2.35;1.25;;;;;;;3.37;90.76;95886.88;2069590;28;20248;-68
2022/02/15 02:51:41;;;;;;;5.60;0.98;;;;;;;3.30;90.55;95873.44;2069254;28;20554;-68
2022/02/15 02:52:43;;;;;;;1.35;0.90;;;;;;;3.39;90.45;95891.97;2062226;28;20191;-68
2022/02/15 02:53:44;;;;;;;1.33;0.90;;;;;;;3.38;90.55;95891.16;2069499;28;20208;-68
2022/02/15 02:54:49;;;;;;;3.35;0.90;;;;;;;3.32;90.91;95887.13;2064141;28;20572;-67
2022/02/15 02:55:51;;;;;;;2.17;0.95;;;;;;;3.35;90.94;95888.72;2067771;28;20637;-68
2022/02/15 02:56:53;;;;;;;6.10;1.00;;;;;;;3.38;90.52;95891.16;2067493;28;20668;-68
2022/02/15 02:57:54;;;;;;;5.28;0.90;;;;;;;3.38;90.56;95898.91;2061969;28;20206;-68
2022/02/15 02:58:56;;;;;;;2.25;0.93;;;;;;;3.41;90.45;95895.31;2064961;28;20198;-68
2022/02/15 02:59:58;;;;;;;3.85;0.80;;;;;;;3.27;90.41;95877.91;2069244;28;20198;-68
2022/02/15 03:00:59;;;;;;;1.10;0.98;;;;;;;3.35;90.74;95894.75;2069048;28;20644;-68
2022/02/15 03:02:01;;;;;;;1.60;1.00;;;;;;;3.41;90.52;95900.50;2067131;28;20210;-68
2022/02/15 03:03:07;;;;;;;2.03;1.10;;;;;;;3.29;90.68;95878.69;2068968;28;20205;-68
2022/02/15 03:04:09;;;;;;;2.08;0.82;;;;;;;3.45;90.29;95907.19;2066589;28;20226;-68
2022/02/15 03:05:10;;;;;;;5.15;1.02;;;;;;;3.36;90.63;95901.59;2066630;28;20210;-68
2022/02/15 03:06:12;;;;;;;4.10;1.00;;;;;;;3.42;90.68;95912.56;2067328;28;20697;-68
2022/02/15 03:07:13;;;;;;;5.05;1.10;;;;;;;3.25;90.72;95890.94;2068908;28;20319;-68
2022/02/15 03:08:15;;;;;;;1.10;0.90;;;;;;;3.41;90.64;95914.31;2067080;28;20289;-68
2022/02/15 03:09:17;;;;;;;11.30;1.60;;;;;;;3.39;90.75;95912.69;2067456;28;20268;-68
2022/02/15 03:10:18;;;;;;;2.33;1.00;;;;;;;3.38;90.71;95905.84;2063303;28;20210;-68
2022/02/15 03:11:20;;;;;;;5.45;1.33;;;;;;;3.42;90.74;95907.38;2064800;28;20201;-68
2022/02/15 03:12:21;;;;;;;5.32;1.25;;;;;;;3.47;90.33;95908.81;2067892;28;20199;-68
2022/02/15 03:13:22;;;;;;;2.22;0.95;;;;;;;3.45;90.40;95907.19;2068486;28;20202;-68
2022/02/15 03:14:25;;;;;;;3.45;1.02;;;;;;;3.44;90.43;95916.72;2065967;28;20221;-68
2022/02/15 03:15:26;;;;;;;1.40;0.95;;;;;;;3.34;90.66;95890.47;2067313;28;20202;-68
2022/02/15 03:16:28;;;;;;;3.10;0.95;;;;;;;3.50;90.21;95900.88;2063849;28;20212;-68
2022/02/15 03:17:29;;;;;;;5.05;0.93;;;;;;;3.46;90.45;95899.34;2065753;28;20195;-68
2022/02/15 03:18:51;;;;;;;4.20;0.90;;;;;;;3.42;90.53;95897.00;2065053;28;20676;-68
2022/02/15 03:19:53;;;;;;;1.75;0.95;;;;;;;3.42;90.83;95909.97;2066532;28;20335;-68
2022/02/15 03:20:54;;;;;;;4.28;1.02;;;;;;;3.42;90.83;95902.19;2071771;28;20204;-68
2022/02/15 03:21:56;;;;;;;5.03;1.48;;;;;;;3.43;90.74;95896.09;2072531;28;20559;-68
2022/02/15 03:22:57;;;;;;;2.22;1.20;;;;;;;3.41;90.90;95900.50;2071649;28;20206;-68
2022/02/15 03:23:59;;;;;;;4.95;0.90;;;;;;;3.41;90.90;95900.50;2069327;28;20210;-68
2022/02/15 03:25:00;;;;;;;6.10;1.23;;;;;;;3.43;90.76;95909.88;2069611;28;20203;-68
2022/02/15 03:26:02;;;;;;;4.43;1.13;;;;;;;3.43;90.88;95902.13;2068818;28;20198;-68
2022/02/15 03:27:04;;;;;;;6.75;1.15;;;;;;;3.42;90.52;95903.03;2067100;28;20399;-68
2022/02/15 03:28:05;;;;;;;4.40;1.48;;;;;;;3.42;90.82;95902.19;2064995;28;20387;-68
2022/02/15 03:29:10;;;;;;;4.90;1.08;;;;;;;3.45;90.79;95918.41;2065138;28;20209;-68
2022/02/15 03:30:12;;;;;;;2.58;1.10;;;;;;;3.43;90.56;95909.03;2065668;28;20198;-68
2022/02/15 03:31:13;;;;;;;4.10;1.70;;;;;;;3.47;90.44;95915.72;2066567;28;20202;-68
2022/02/15 03:32:15;;;;;;;1.30;0.80;;;;;;;3.43;90.46;95911.63;2066916;28;20194;-68
2022/02/15 03:33:16;;;;;;;2.28;0.93;;;;;;;3.45;90.57;95912.38;2067533;28;20198;-68
2022/02/15 03:34:18;;;;;;;3.58;1.20;;;;;;;3.45;90.53;95908.06;2067678;28;20230;-68
2022/02/15 03:35:19;;;;;;;2.63;1.25;;;;;;;3.46;90.40;95914.88;2069024;28;20546;-68
2022/02/15 03:36:21;;;;;;;1.90;1.02;;;;;;;3.45;90.57;95912.38;2070148;28;20201;-68
2022/02/15 03:37:22;;;;;;;8.65;1.52;;;;;;;3.45;90.52;95914.97;2070311;28;20217;-68
2022/02/15 03:38:24;;;;;;;2.30;1.08;;;;;;;3.43;90.36;95903.84;2071226;28;20582;-68
2022/02/15 03:39:25;;;;;;;2.63;1.20;;;;;;;3.33;90.52;95886.22;2071073;28;20742;-68
2022/02/15 03:43:04;;;;;;;2.95;1.38;;;;;;;3.43;90.52;95915.06;2070542;28;20195;-68
2022/02/15 03:43:08;;;;;;;3.00;1.10;;;;;;;3.42;90.48;95917.72;2067328;28;20205;-68
2022/02/15 03:44:10;;;;;;;1.80;1.00;;;;;;;3.44;90.34;95915.91;2068063;28;20217;-68
2022/02/15 03:45:12;;;;;;;6.88;1.02;;;;;;;3.36;90.16;95908.53;2064681;28;20232;-68
2022/02/15 03:46:15;;;;;;;1.55;1.05;;;;;;;3.37;90.48;95910.19;2065114;28;20256;-68
2022/02/15 03:47:16;;;;;;;2.83;1.25;;;;;;;3.47;90.17;95926.94;2065526;28;20206;-68
2022/02/15 03:48:17;;;;;;;2.47;1.05;;;;;;;3.45;90.02;95935.66;2064386;28;20194;-68
2022/02/15 03:49:20;;;;;;;4.00;1.30;;;;;;;3.23;90.16;95897.09;2064895;28;20248;-68
2022/02/15 03:50:21;;;;;;;6.57;1.17;;;;;;;3.43;90.35;95934.91;2066440;28;20657;-68
2022/02/15 03:51:23;;;;;;;2.88;1.00;;;;;;;3.36;90.11;95909.34;2068564;28;20232;-68
2022/02/15 03:52:24;;;;;;;2.88;0.95;;;;;;;3.42;89.99;95930.66;2067332;28;20554;-68
2022/02/15 03:53:26;;;;;;;5.47;1.10;;;;;;;3.42;90.08;95936.69;2066839;28;20230;-68
2022/02/15 03:54:27;;;;;;;2.83;1.10;;;;;;;3.47;89.80;95928.66;2066696;28;20229;-68
2022/02/15 03:55:29;;;;;;;5.28;1.35;;;;;;;3.45;90.07;95920.13;2067075;28;20681;-68
2022/02/15 03:56:30;;;;;;;2.30;1.00;;;;;;;3.31;89.96;95911.34;2066769;28;20649;-68
2022/02/15 03:57:35;;;;;;;3.15;1.10;;;;;;;3.07;90.11;95877.19;2065179;28;20677;-68
2022/02/15 03:58:37;;;;;;;4.70;1.17;;;;;;;3.40;90.42;95935.09;2065305;28;20309;-68
2022/02/15 03:59:39;;;;;;;2.85;1.10;;;;;;;3.42;90.18;95933.25;2063867;28;20242;-68
2022/02/15 04:00:42;;;;;;;4.60;1.00;;;;;;;3.40;90.15;95929.91;2064035;28;20236;-68
2022/02/15 04:01:44;;;;;;;4.07;0.90;;;;;;;3.35;90.41;95931.00;2065947;28;20198;-68
2022/02/15 04:02:46;;;;;;;3.78;1.10;;;;;;;3.34;90.66;95931.88;2068728;28;20204;-68
2022/02/15 04:03:47;;;;;;;5.10;1.30;;;;;;;3.36;90.58;95937.81;2065666;28;20206;-68
2022/02/15 04:04:49;;;;;;;4.85;1.40;;;;;;;3.34;90.53;95936.22;2065992;28;20248;-68
2022/02/15 04:05:50;;;;;;;3.15;1.23;;;;;;;3.28;90.83;95942.56;2069543;28;20226;-68
2022/02/15 04:06:53;;;;;;;2.35;1.23;;;;;;;3.31;90.84;95942.41;2066245;28;20201;-67
2022/02/15 04:07:54;;;;;;;1.88;0.90;;;;;;;3.37;90.51;95946.41;2069419;28;20202;-69
2022/02/15 04:08:56;;;;;;;6.88;1.10;;;;;;;3.30;90.55;95935.53;2068278;28;20720;-68
2022/02/15 04:09:57;;;;;;;5.30;1.17;;;;;;;3.30;90.50;95951.06;2065703;28;20195;-67
2022/02/15 04:10:58;;;;;;;4.57;0.95;;;;;;;3.32;90.32;95945.81;2068610;28;20196;-67
2022/02/15 04:12:00;;;;;;;1.67;0.80;;;;;;;3.30;90.64;95947.66;2066605;28;20206;-68
2022/02/15 04:13:01;;;;;;;1.38;0.90;;;;;;;3.22;90.51;95940.28;2067061;28;20206;-68
2022/02/15 04:14:03;;;;;;;6.03;1.23;;;;;;;3.25;90.65;95954.81;2065498;28;20680;-68
2022/02/15 04:15:06;;;;;;;1.35;0.98;;;;;;;3.21;90.82;95951.53;2066592;28;20202;-68
2022/02/15 04:16:10;;;;;;;8.70;1.00;;;;;;;3.19;90.75;95953.34;2065761;28;20198;-68
2022/02/15 04:17:12;;;;;;;3.40;1.02;;;;;;;3.21;90.80;95953.28;2065192;28;20189;-68
2022/02/15 04:18:13;;;;;;;1.25;0.82;;;;;;;3.22;90.70;95957.56;2067772;28;20201;-68
2022/02/15 04:19:14;;;;;;;4.07;1.20;;;;;;;3.21;90.87;95955.88;2068816;28;20222;-69
2022/02/15 04:20:16;;;;;;;2.28;1.15;;;;;;;3.04;90.81;95929.09;2071462;28;20502;-68
2022/02/15 04:21:23;;;;;;;6.70;1.05;;;;;;;3.14;90.55;95939.81;2071240;28;20783;-68
2022/02/15 04:22:25;;;;;;;2.03;0.82;;;;;;;3.24;90.68;95956.56;2068783;28;20200;-68
2022/02/15 04:23:26;;;;;;;4.63;1.02;;;;;;;3.24;90.75;95956.56;2069828;28;20209;-68
2022/02/15 04:24:27;;;;;;;2.88;1.08;;;;;;;3.23;90.27;95959.22;2068580;28;20218;-68
2022/02/15 04:25:29;;;;;;;4.13;0.90;;;;;;;3.27;90.16;95952.97;2066752;28;20207;-68
2022/02/15 04:26:31;;;;;;;2.15;0.70;;;;;;;3.27;90.22;95960.75;2065644;28;20201;-68
2022/02/15 04:27:32;;;;;;;4.90;1.02;;;;;;;3.26;90.10;95959.91;2065632;28;20711;-68
2022/02/15 04:28:34;;;;;;;2.75;1.00;;;;;;;3.32;90.08;95956.19;2068573;28;20193;-68
2022/02/15 04:29:35;;;;;;;3.63;1.08;;;;;;;3.27;89.87;95948.63;2066694;28;20250;-68
2022/02/15 04:30:37;;;;;;;4.90;1.10;;;;;;;3.32;89.66;95951.84;2067289;28;20202;-68
2022/02/15 04:31:38;;;;;;;3.35;1.20;;;;;;;3.30;89.78;95958.84;2068171;28;20202;-67
2022/02/15 04:32:40;;;;;;;3.05;1.00;;;;;;;3.31;89.49;95957.94;2069218;28;20206;-68
2022/02/15 04:33:42;;;;;;;4.10;1.30;;;;;;;3.30;89.74;95956.25;2067109;28;20664;-68
2022/02/15 04:34:43;;;;;;;2.63;0.90;;;;;;;3.34;89.63;95962.13;2066571;28;20222;-68
2022/02/15 04:35:45;;;;;;;1.90;1.00;;;;;;;3.33;89.64;95958.69;2068998;28;20190;-68
2022/02/15 04:36:46;;;;;;;8.13;1.02;;;;;;;3.31;89.51;95962.25;2065177;28;20198;-68
2022/02/15 04:37:48;;;;;;;5.88;1.20;;;;;;;3.25;89.86;95954.81;2064690;28;20238;-68
2022/02/15 04:38:49;;;;;;;5.40;1.35;;;;;;;3.30;89.66;95950.25;2065271;28;20234;-68
2022/02/15 04:39:52;;;;;;;2.17;1.00;;;;;;;3.32;89.52;95959.59;2066936;28;20194;-68
2022/02/15 04:40:53;;;;;;;3.45;0.90;;;;;;;3.25;89.37;95947.88;2067234;28;20645;-68
2022/02/15 04:41:55;;;;;;;4.25;1.08;;;;;;;3.32;89.25;95957.00;2066765;28;20209;-68
2022/02/15 04:42:56;;;;;;;1.17;0.70;;;;;;;3.35;89.29;95958.59;2067351;28;20641;-68
2022/02/15 04:43:58;;;;;;;3.88;1.30;;;;;;;3.31;89.38;95954.50;2067698;28;20197;-68
2022/02/15 04:44:59;;;;;;;1.50;0.93;;;;;;;3.37;89.41;95964.53;2068392;28;20251;-68
2022/02/15 04:46:01;;;;;;;5.85;1.30;;;;;;;3.30;89.42;95955.44;2069454;28;20198;-68
2022/02/15 04:47:04;;;;;;;5.72;1.20;;;;;;;3.42;88.92;95962.56;2070011;28;20817;-68
2022/02/15 04:48:05;;;;;;;4.50;0.90;;;;;;;3.30;88.92;95955.44;2069229;28;20744;-68
2022/02/15 04:49:07;;;;;;;3.72;0.95;;;;;;;3.41;89.02;95966.09;2068258;28;20206;-68
2022/02/15 04:50:09;;;;;;;3.35;1.20;;;;;;;3.40;89.05;95961.81;2066965;28;20818;-68
2022/02/15 04:51:11;;;;;;;3.47;1.08;;;;;;;3.42;88.96;95975.50;2065740;28;20198;-68
2022/02/15 04:52:12;;;;;;;2.45;0.98;;;;;;;3.44;88.74;95981.44;2065371;28;20198;-68
2022/02/15 04:53:14;;;;;;;3.13;1.08;;;;;;;3.47;88.55;95977.84;2065783;28;20842;-68
2022/02/15 04:54:17;;;;;;;1.65;0.90;;;;;;;3.34;88.33;95955.19;2065449;28;20225;-68
2022/02/15 04:55:18;;;;;;;2.67;1.50;;;;;;;3.51;88.29;95975.06;2067685;28;20248;-68
2022/02/15 04:56:21;;;;;;;7.40;1.42;;;;;;;3.49;88.29;95978.59;2062542;28;20212;-68
2022/02/15 04:57:23;;;;;;;2.35;1.10;;;;;;;3.49;88.54;95983.78;2063835;28;20199;-68
2022/02/15 04:58:24;;;;;;;9.05;1.20;;;;;;;3.49;88.39;95986.38;2063531;28;20211;-68